sensor_id;sensor_type;location;lat;lon;timestamp;temperature;humidity
39957;DHT22;48483;44.640;7.494;2024-03-29T00:01:49;9.60;99.90
39957;DHT22;48483;44.640;7.494;2024-03-29T00:04:16;9.60;99.90
39957;DHT22;48483;44.640;7.494;2024-03-29T00:06:43;9.60;99.90
39957;DHT22;48483;44.640;7.494;2024-03-29T00:09:10;9.60;99.90
39957;DHT22;48483;44.640;7.494;2024-03-29T00:11:37;9.60;99.90
39957;DHT22;48483;44.640;7.494;2024-03-29T00:14:05;9.50;99.90
39957;DHT22;48483;44.640;7.494;2024-03-29T00:16:32;9.40;99.90
39957;DHT22;48483;44.640;7.494;2024-03-29T00:18:59;9.40;99.90
39957;DHT22;48483;44.640;7.494;2024-03-29T00:21:25;9.50;99.90
39957;DHT22;48483;44.640;7.494;2024-03-29T00:23:52;9.60;99.90
39957;DHT22;48483;44.640;7.494;2024-03-29T00:26:20;9.50;99.90
39957;DHT22;48483;44.640;7.494;2024-03-29T00:28:47;9.50;99.90
39957;DHT22;48483;44.640;7.494;2024-03-29T00:31:13;9.50;99.90
39957;DHT22;48483;44.640;7.494;2024-03-29T00:33:40;9.60;99.90
39957;DHT22;48483;44.640;7.494;2024-03-29T00:36:07;9.60;99.90
39957;DHT22;48483;44.640;7.494;2024-03-29T00:38:34;9.60;99.90
39957;DHT22;48483;44.640;7.494;2024-03-29T00:41:01;9.60;99.90
39957;DHT22;48483;44.640;7.494;2024-03-29T00:43:29;9.60;99.90
39957;DHT22;48483;44.640;7.494;2024-03-29T00:45:55;9.60;99.90
39957;DHT22;48483;44.640;7.494;2024-03-29T00:48:22;9.60;99.90
39957;DHT22;48483;44.640;7.494;2024-03-29T00:50:49;9.60;99.90
39957;DHT22;48483;44.640;7.494;2024-03-29T00:53:16;9.60;99.90
39957;DHT22;48483;44.640;7.494;2024-03-29T00:55:43;9.50;99.90
39957;DHT22;48483;44.640;7.494;2024-03-29T00:58:10;9.60;99.90
39957;DHT22;48483;44.640;7.494;2024-03-29T01:00:38;9.60;99.90
39957;DHT22;48483;44.640;7.494;2024-03-29T01:03:06;9.60;99.90
39957;DHT22;48483;44.640;7.494;2024-03-29T01:05:32;9.50;99.90
39957;DHT22;48483;44.640;7.494;2024-03-29T01:07:59;9.40;99.90
39957;DHT22;48483;44.640;7.494;2024-03-29T01:10:25;9.50;99.90
39957;DHT22;48483;44.640;7.494;2024-03-29T01:12:52;9.50;99.90
39957;DHT22;48483;44.640;7.494;2024-03-29T01:15:20;9.50;99.90
39957;DHT22;48483;44.640;7.494;2024-03-29T01:17:48;9.40;99.90
39957;DHT22;48483;44.640;7.494;2024-03-29T01:20:15;9.40;99.90
39957;DHT22;48483;44.640;7.494;2024-03-29T01:22:41;9.40;99.90
39957;DHT22;48483;44.640;7.494;2024-03-29T01:25:08;9.40;99.90
39957;DHT22;48483;44.640;7.494;2024-03-29T01:27:37;9.50;99.90
39957;DHT22;48483;44.640;7.494;2024-03-29T01:30:05;9.40;99.90
39957;DHT22;48483;44.640;7.494;2024-03-29T01:32:31;9.40;99.90
39957;DHT22;48483;44.640;7.494;2024-03-29T01:34:59;9.40;99.90
39957;DHT22;48483;44.640;7.494;2024-03-29T01:37:26;9.30;99.90
39957;DHT22;48483;44.640;7.494;2024-03-29T01:39:52;9.30;99.90
39957;DHT22;48483;44.640;7.494;2024-03-29T01:42:19;9.20;99.90
39957;DHT22;48483;44.640;7.494;2024-03-29T01:44:46;9.30;99.90
39957;DHT22;48483;44.640;7.494;2024-03-29T01:47:12;9.40;99.90
39957;DHT22;48483;44.640;7.494;2024-03-29T01:49:40;9.30;99.90
39957;DHT22;48483;44.640;7.494;2024-03-29T01:52:08;9.30;99.90
39957;DHT22;48483;44.640;7.494;2024-03-29T01:54:35;9.30;99.90
39957;DHT22;48483;44.640;7.494;2024-03-29T01:57:02;9.40;99.90
39957;DHT22;48483;44.640;7.494;2024-03-29T01:59:29;9.30;99.90
39957;DHT22;48483;44.640;7.494;2024-03-29T02:01:56;9.30;99.90
39957;DHT22;48483;44.640;7.494;2024-03-29T02:04:23;9.30;99.90
39957;DHT22;48483;44.640;7.494;2024-03-29T02:06:50;9.40;99.90
39957;DHT22;48483;44.640;7.494;2024-03-29T02:09:18;9.40;99.90
39957;DHT22;48483;44.640;7.494;2024-03-29T02:11:45;9.40;99.90
39957;DHT22;48483;44.640;7.494;2024-03-29T02:14:12;9.40;99.90
39957;DHT22;48483;44.640;7.494;2024-03-29T02:16:39;9.40;99.90
39957;DHT22;48483;44.640;7.494;2024-03-29T02:19:05;9.40;99.90
39957;DHT22;48483;44.640;7.494;2024-03-29T02:21:33;9.40;99.90
39957;DHT22;48483;44.640;7.494;2024-03-29T02:24:07;9.40;99.90
39957;DHT22;48483;44.640;7.494;2024-03-29T02:26:34;9.40;99.90
39957;DHT22;48483;44.640;7.494;2024-03-29T02:29:03;9.40;99.90
39957;DHT22;48483;44.640;7.494;2024-03-29T02:31:29;9.40;99.90
39957;DHT22;48483;44.640;7.494;2024-03-29T02:33:56;9.40;99.90
39957;DHT22;48483;44.640;7.494;2024-03-29T02:36:23;9.40;99.90
39957;DHT22;48483;44.640;7.494;2024-03-29T02:38:49;9.40;99.90
39957;DHT22;48483;44.640;7.494;2024-03-29T02:41:18;9.40;99.90
39957;DHT22;48483;44.640;7.494;2024-03-29T02:43:44;9.30;99.90
39957;DHT22;48483;44.640;7.494;2024-03-29T02:46:11;9.40;99.90
39957;DHT22;48483;44.640;7.494;2024-03-29T02:48:38;9.30;99.90
39957;DHT22;48483;44.640;7.494;2024-03-29T02:51:04;9.40;99.90
39957;DHT22;48483;44.640;7.494;2024-03-29T02:53:31;9.30;99.90
39957;DHT22;48483;44.640;7.494;2024-03-29T02:55:58;9.30;99.90
39957;DHT22;48483;44.640;7.494;2024-03-29T02:58:26;9.30;99.90
39957;DHT22;48483;44.640;7.494;2024-03-29T03:00:52;9.30;99.90
39957;DHT22;48483;44.640;7.494;2024-03-29T03:03:19;9.30;99.90
39957;DHT22;48483;44.640;7.494;2024-03-29T03:05:45;9.30;99.90
39957;DHT22;48483;44.640;7.494;2024-03-29T03:08:12;9.40;99.90
39957;DHT22;48483;44.640;7.494;2024-03-29T03:10:57;9.30;99.90
39957;DHT22;48483;44.640;7.494;2024-03-29T03:13:28;9.30;99.90
39957;DHT22;48483;44.640;7.494;2024-03-29T03:15:55;9.30;99.90
39957;DHT22;48483;44.640;7.494;2024-03-29T03:18:22;9.30;99.90
39957;DHT22;48483;44.640;7.494;2024-03-29T03:20:52;9.30;99.90
39957;DHT22;48483;44.640;7.494;2024-03-29T03:23:19;9.40;99.90
39957;DHT22;48483;44.640;7.494;2024-03-29T03:25:54;9.40;99.90
39957;DHT22;48483;44.640;7.494;2024-03-29T03:28:21;9.40;99.90
39957;DHT22;48483;44.640;7.494;2024-03-29T03:30:49;9.40;99.90
39957;DHT22;48483;44.640;7.494;2024-03-29T03:33:16;9.40;99.90
39957;DHT22;48483;44.640;7.494;2024-03-29T03:35:43;9.30;99.90
39957;DHT22;48483;44.640;7.494;2024-03-29T03:38:11;9.30;99.90
39957;DHT22;48483;44.640;7.494;2024-03-29T03:40:38;9.40;99.90
39957;DHT22;48483;44.640;7.494;2024-03-29T03:43:06;9.40;99.90
39957;DHT22;48483;44.640;7.494;2024-03-29T03:45:34;9.40;99.90
39957;DHT22;48483;44.640;7.494;2024-03-29T03:48:03;9.40;99.90
39957;DHT22;48483;44.640;7.494;2024-03-29T03:50:29;9.40;99.90
39957;DHT22;48483;44.640;7.494;2024-03-29T03:52:56;9.40;99.90
39957;DHT22;48483;44.640;7.494;2024-03-29T03:55:23;9.40;99.90
39957;DHT22;48483;44.640;7.494;2024-03-29T03:57:50;9.40;99.90
39957;DHT22;48483;44.640;7.494;2024-03-29T04:00:18;9.40;99.90
39957;DHT22;48483;44.640;7.494;2024-03-29T04:02:47;9.50;99.90
39957;DHT22;48483;44.640;7.494;2024-03-29T04:05:16;9.40;99.90
39957;DHT22;48483;44.640;7.494;2024-03-29T04:07:43;9.50;99.90
39957;DHT22;48483;44.640;7.494;2024-03-29T04:10:10;9.50;99.90
39957;DHT22;48483;44.640;7.494;2024-03-29T04:12:37;9.50;99.90
39957;DHT22;48483;44.640;7.494;2024-03-29T04:15:04;9.40;99.90
39957;DHT22;48483;44.640;7.494;2024-03-29T04:17:32;9.50;99.90
39957;DHT22;48483;44.640;7.494;2024-03-29T04:19:59;9.50;99.90
39957;DHT22;48483;44.640;7.494;2024-03-29T04:22:29;9.50;99.90
39957;DHT22;48483;44.640;7.494;2024-03-29T04:24:55;9.40;99.90
39957;DHT22;48483;44.640;7.494;2024-03-29T04:27:22;9.50;99.90
39957;DHT22;48483;44.640;7.494;2024-03-29T04:29:51;9.40;99.90
39957;DHT22;48483;44.640;7.494;2024-03-29T04:32:18;9.40;99.90
39957;DHT22;48483;44.640;7.494;2024-03-29T04:34:47;9.40;99.90
39957;DHT22;48483;44.640;7.494;2024-03-29T04:37:14;9.50;99.90
39957;DHT22;48483;44.640;7.494;2024-03-29T04:39:42;9.40;99.90
39957;DHT22;48483;44.640;7.494;2024-03-29T04:42:09;9.50;99.90
39957;DHT22;48483;44.640;7.494;2024-03-29T04:44:54;9.50;99.90
39957;DHT22;48483;44.640;7.494;2024-03-29T04:47:21;9.40;99.90
39957;DHT22;48483;44.640;7.494;2024-03-29T04:49:48;9.50;99.90
39957;DHT22;48483;44.640;7.494;2024-03-29T04:52:14;9.40;99.90
39957;DHT22;48483;44.640;7.494;2024-03-29T04:54:42;9.40;99.90
39957;DHT22;48483;44.640;7.494;2024-03-29T04:57:10;9.40;99.90
39957;DHT22;48483;44.640;7.494;2024-03-29T04:59:39;9.50;99.90
39957;DHT22;48483;44.640;7.494;2024-03-29T05:02:05;9.40;99.90
39957;DHT22;48483;44.640;7.494;2024-03-29T05:04:32;9.50;99.90
39957;DHT22;48483;44.640;7.494;2024-03-29T05:06:59;9.50;99.90
39957;DHT22;48483;44.640;7.494;2024-03-29T05:09:26;9.50;99.90
39957;DHT22;48483;44.640;7.494;2024-03-29T05:11:54;9.40;99.90
39957;DHT22;48483;44.640;7.494;2024-03-29T05:14:21;9.40;99.90
39957;DHT22;48483;44.640;7.494;2024-03-29T05:16:48;9.50;99.90
39957;DHT22;48483;44.640;7.494;2024-03-29T05:19:16;9.50;99.90
39957;DHT22;48483;44.640;7.494;2024-03-29T05:21:42;9.40;99.90
39957;DHT22;48483;44.640;7.494;2024-03-29T05:24:09;9.50;99.90
39957;DHT22;48483;44.640;7.494;2024-03-29T05:26:36;9.40;99.90
39957;DHT22;48483;44.640;7.494;2024-03-29T05:29:04;9.40;99.90
39957;DHT22;48483;44.640;7.494;2024-03-29T05:31:31;9.40;99.90
39957;DHT22;48483;44.640;7.494;2024-03-29T05:33:58;9.40;99.90
39957;DHT22;48483;44.640;7.494;2024-03-29T05:36:26;9.40;99.90
39957;DHT22;48483;44.640;7.494;2024-03-29T05:38:53;9.40;99.90
39957;DHT22;48483;44.640;7.494;2024-03-29T05:41:20;9.40;99.90
39957;DHT22;48483;44.640;7.494;2024-03-29T05:43:47;9.40;99.90
39957;DHT22;48483;44.640;7.494;2024-03-29T05:50:48;9.40;99.90
39957;DHT22;48483;44.640;7.494;2024-03-29T05:53:15;9.50;99.90
39957;DHT22;48483;44.640;7.494;2024-03-29T05:55:42;9.40;99.90
39957;DHT22;48483;44.640;7.494;2024-03-29T05:58:08;9.40;99.90
39957;DHT22;48483;44.640;7.494;2024-03-29T06:00:35;9.40;99.90
39957;DHT22;48483;44.640;7.494;2024-03-29T06:03:02;9.40;99.90
39957;DHT22;48483;44.640;7.494;2024-03-29T06:05:29;9.30;99.90
39957;DHT22;48483;44.640;7.494;2024-03-29T06:07:57;9.40;99.90
39957;DHT22;48483;44.640;7.494;2024-03-29T06:10:24;9.40;99.90
39957;DHT22;48483;44.640;7.494;2024-03-29T06:12:51;9.40;99.90
39957;DHT22;48483;44.640;7.494;2024-03-29T06:15:17;9.40;99.90
39957;DHT22;48483;44.640;7.494;2024-03-29T06:18:03;9.40;99.90
39957;DHT22;48483;44.640;7.494;2024-03-29T06:20:30;9.40;99.90
39957;DHT22;48483;44.640;7.494;2024-03-29T06:22:58;9.40;99.90
39957;DHT22;48483;44.640;7.494;2024-03-29T06:25:25;9.30;99.90
39957;DHT22;48483;44.640;7.494;2024-03-29T06:27:51;9.40;99.90
39957;DHT22;48483;44.640;7.494;2024-03-29T06:30:18;9.40;99.90
39957;DHT22;48483;44.640;7.494;2024-03-29T06:32:45;9.30;99.90
39957;DHT22;48483;44.640;7.494;2024-03-29T06:35:12;9.30;99.90
39957;DHT22;48483;44.640;7.494;2024-03-29T06:37:39;9.30;99.90
39957;DHT22;48483;44.640;7.494;2024-03-29T06:40:09;9.40;99.90
39957;DHT22;48483;44.640;7.494;2024-03-29T06:42:36;9.40;99.90
39957;DHT22;48483;44.640;7.494;2024-03-29T06:45:04;9.40;99.90
39957;DHT22;48483;44.640;7.494;2024-03-29T06:47:32;9.30;99.90
39957;DHT22;48483;44.640;7.494;2024-03-29T06:49:59;9.40;99.90
39957;DHT22;48483;44.640;7.494;2024-03-29T06:52:25;9.40;99.90
39957;DHT22;48483;44.640;7.494;2024-03-29T06:54:52;9.40;99.90
39957;DHT22;48483;44.640;7.494;2024-03-29T06:57:20;9.30;99.90
39957;DHT22;48483;44.640;7.494;2024-03-29T06:59:51;9.40;99.90
39957;DHT22;48483;44.640;7.494;2024-03-29T07:02:19;9.40;99.90
39957;DHT22;48483;44.640;7.494;2024-03-29T07:04:45;9.40;99.90
39957;DHT22;48483;44.640;7.494;2024-03-29T07:07:12;9.30;99.90
39957;DHT22;48483;44.640;7.494;2024-03-29T07:09:39;9.40;99.90
39957;DHT22;48483;44.640;7.494;2024-03-29T07:12:06;9.30;99.90
39957;DHT22;48483;44.640;7.494;2024-03-29T07:14:34;9.30;99.90
39957;DHT22;48483;44.640;7.494;2024-03-29T07:17:02;9.40;99.90
39957;DHT22;48483;44.640;7.494;2024-03-29T07:19:29;9.40;99.90
39957;DHT22;48483;44.640;7.494;2024-03-29T07:21:56;9.40;99.90
39957;DHT22;48483;44.640;7.494;2024-03-29T07:24:22;9.40;99.90
39957;DHT22;48483;44.640;7.494;2024-03-29T07:26:49;9.40;99.90
39957;DHT22;48483;44.640;7.494;2024-03-29T07:29:16;9.40;99.90
39957;DHT22;48483;44.640;7.494;2024-03-29T07:31:44;9.40;99.90
39957;DHT22;48483;44.640;7.494;2024-03-29T07:34:11;9.50;99.90
39957;DHT22;48483;44.640;7.494;2024-03-29T07:36:38;9.50;99.90
39957;DHT22;48483;44.640;7.494;2024-03-29T07:39:06;9.50;99.90
39957;DHT22;48483;44.640;7.494;2024-03-29T07:41:33;9.50;99.90
39957;DHT22;48483;44.640;7.494;2024-03-29T07:44:00;9.50;99.90
39957;DHT22;48483;44.640;7.494;2024-03-29T07:46:31;9.50;99.90
39957;DHT22;48483;44.640;7.494;2024-03-29T07:48:59;9.50;99.90
39957;DHT22;48483;44.640;7.494;2024-03-29T07:51:27;9.50;99.90
39957;DHT22;48483;44.640;7.494;2024-03-29T07:53:53;9.60;99.90
39957;DHT22;48483;44.640;7.494;2024-03-29T07:56:20;9.60;99.90
39957;DHT22;48483;44.640;7.494;2024-03-29T07:58:50;9.60;99.90
39957;DHT22;48483;44.640;7.494;2024-03-29T08:01:19;9.60;99.90
39957;DHT22;48483;44.640;7.494;2024-03-29T08:03:46;9.60;99.90
39957;DHT22;48483;44.640;7.494;2024-03-29T08:06:14;9.60;99.90
39957;DHT22;48483;44.640;7.494;2024-03-29T08:08:44;9.70;99.90
39957;DHT22;48483;44.640;7.494;2024-03-29T08:11:11;9.70;99.90
39957;DHT22;48483;44.640;7.494;2024-03-29T08:13:38;9.70;99.90
39957;DHT22;48483;44.640;7.494;2024-03-29T08:16:06;9.70;99.90
39957;DHT22;48483;44.640;7.494;2024-03-29T08:18:33;9.80;99.90
39957;DHT22;48483;44.640;7.494;2024-03-29T08:21:00;9.80;99.90
39957;DHT22;48483;44.640;7.494;2024-03-29T08:23:28;9.80;99.90
39957;DHT22;48483;44.640;7.494;2024-03-29T08:25:55;9.80;99.90
39957;DHT22;48483;44.640;7.494;2024-03-29T08:28:22;9.80;99.90
39957;DHT22;48483;44.640;7.494;2024-03-29T08:30:58;9.80;99.90
39957;DHT22;48483;44.640;7.494;2024-03-29T08:33:25;9.90;99.90
39957;DHT22;48483;44.640;7.494;2024-03-29T08:35:52;9.90;99.90
39957;DHT22;48483;44.640;7.494;2024-03-29T08:38:18;9.90;99.90
39957;DHT22;48483;44.640;7.494;2024-03-29T08:40:47;9.90;99.90
39957;DHT22;48483;44.640;7.494;2024-03-29T08:43:14;9.90;99.90
39957;DHT22;48483;44.640;7.494;2024-03-29T08:45:42;9.90;99.90
39957;DHT22;48483;44.640;7.494;2024-03-29T08:48:09;10.00;99.90
39957;DHT22;48483;44.640;7.494;2024-03-29T08:50:37;10.00;99.90
39957;DHT22;48483;44.640;7.494;2024-03-29T08:53:04;10.10;99.90
39957;DHT22;48483;44.640;7.494;2024-03-29T08:55:31;10.20;99.90
39957;DHT22;48483;44.640;7.494;2024-03-29T08:57:59;10.20;99.90
39957;DHT22;48483;44.640;7.494;2024-03-29T09:00:26;10.20;99.90
39957;DHT22;48483;44.640;7.494;2024-03-29T09:02:53;10.30;99.90
39957;DHT22;48483;44.640;7.494;2024-03-29T09:05:20;10.30;99.90
39957;DHT22;48483;44.640;7.494;2024-03-29T09:07:48;10.30;99.90
39957;DHT22;48483;44.640;7.494;2024-03-29T09:10:15;10.30;99.90
39957;DHT22;48483;44.640;7.494;2024-03-29T09:12:42;10.40;99.90
39957;DHT22;48483;44.640;7.494;2024-03-29T09:15:10;10.40;99.90
39957;DHT22;48483;44.640;7.494;2024-03-29T09:17:40;10.50;99.90
39957;DHT22;48483;44.640;7.494;2024-03-29T09:20:07;10.60;99.90
39957;DHT22;48483;44.640;7.494;2024-03-29T09:22:34;10.60;99.90
39957;DHT22;48483;44.640;7.494;2024-03-29T09:25:01;10.70;99.90
39957;DHT22;48483;44.640;7.494;2024-03-29T09:27:28;10.60;99.90
39957;DHT22;48483;44.640;7.494;2024-03-29T09:29:55;10.60;99.90
39957;DHT22;48483;44.640;7.494;2024-03-29T09:32:24;10.60;99.90
39957;DHT22;48483;44.640;7.494;2024-03-29T09:34:51;10.60;99.90
39957;DHT22;48483;44.640;7.494;2024-03-29T09:37:18;10.60;99.90
39957;DHT22;48483;44.640;7.494;2024-03-29T09:39:46;10.60;99.90
39957;DHT22;48483;44.640;7.494;2024-03-29T09:42:16;10.70;99.90
39957;DHT22;48483;44.640;7.494;2024-03-29T09:44:44;10.70;99.90
39957;DHT22;48483;44.640;7.494;2024-03-29T09:47:14;10.70;99.90
39957;DHT22;48483;44.640;7.494;2024-03-29T09:49:44;10.70;99.90
39957;DHT22;48483;44.640;7.494;2024-03-29T09:52:12;10.80;99.90
39957;DHT22;48483;44.640;7.494;2024-03-29T09:54:39;10.80;99.90
39957;DHT22;48483;44.640;7.494;2024-03-29T09:57:06;10.80;99.90
39957;DHT22;48483;44.640;7.494;2024-03-29T09:59:33;10.80;99.90
39957;DHT22;48483;44.640;7.494;2024-03-29T10:02:02;10.80;99.90
39957;DHT22;48483;44.640;7.494;2024-03-29T10:04:31;10.80;99.90
39957;DHT22;48483;44.640;7.494;2024-03-29T10:07:00;10.80;99.90
39957;DHT22;48483;44.640;7.494;2024-03-29T10:09:27;10.80;99.90
39957;DHT22;48483;44.640;7.494;2024-03-29T10:11:56;10.80;99.90
39957;DHT22;48483;44.640;7.494;2024-03-29T10:14:22;10.80;99.90
39957;DHT22;48483;44.640;7.494;2024-03-29T10:16:51;10.80;99.90
39957;DHT22;48483;44.640;7.494;2024-03-29T10:19:19;10.80;99.90
39957;DHT22;48483;44.640;7.494;2024-03-29T10:21:46;10.80;99.90
39957;DHT22;48483;44.640;7.494;2024-03-29T10:24:15;10.90;99.90
39957;DHT22;48483;44.640;7.494;2024-03-29T10:26:43;11.00;99.90
39957;DHT22;48483;44.640;7.494;2024-03-29T10:29:10;11.00;99.90
39957;DHT22;48483;44.640;7.494;2024-03-29T10:31:37;11.00;99.90
39957;DHT22;48483;44.640;7.494;2024-03-29T10:34:04;11.00;99.90
39957;DHT22;48483;44.640;7.494;2024-03-29T10:36:32;11.10;99.90
39957;DHT22;48483;44.640;7.494;2024-03-29T10:39:02;11.10;99.90
39957;DHT22;48483;44.640;7.494;2024-03-29T10:41:32;11.10;99.90
39957;DHT22;48483;44.640;7.494;2024-03-29T10:44:02;11.10;99.90
39957;DHT22;48483;44.640;7.494;2024-03-29T10:46:31;11.10;99.90
39957;DHT22;48483;44.640;7.494;2024-03-29T10:48:58;11.20;99.90
39957;DHT22;48483;44.640;7.494;2024-03-29T10:51:26;11.20;99.90
39957;DHT22;48483;44.640;7.494;2024-03-29T10:53:56;11.20;99.90
39957;DHT22;48483;44.640;7.494;2024-03-29T10:56:24;11.30;99.90
39957;DHT22;48483;44.640;7.494;2024-03-29T10:58:56;11.30;99.90
39957;DHT22;48483;44.640;7.494;2024-03-29T11:01:25;11.30;99.90
39957;DHT22;48483;44.640;7.494;2024-03-29T11:03:54;11.30;99.90
39957;DHT22;48483;44.640;7.494;2024-03-29T11:06:27;11.30;99.90
39957;DHT22;48483;44.640;7.494;2024-03-29T11:08:56;11.30;99.90
39957;DHT22;48483;44.640;7.494;2024-03-29T11:11:27;11.40;99.90
39957;DHT22;48483;44.640;7.494;2024-03-29T11:14:02;11.40;99.90
39957;DHT22;48483;44.640;7.494;2024-03-29T11:16:29;11.50;99.90
39957;DHT22;48483;44.640;7.494;2024-03-29T11:18:56;11.50;99.90
39957;DHT22;48483;44.640;7.494;2024-03-29T11:21:24;11.50;99.90
39957;DHT22;48483;44.640;7.494;2024-03-29T11:23:54;11.50;99.90
39957;DHT22;48483;44.640;7.494;2024-03-29T11:26:24;11.60;99.90
39957;DHT22;48483;44.640;7.494;2024-03-29T11:28:52;11.60;99.90
39957;DHT22;48483;44.640;7.494;2024-03-29T11:31:24;11.70;99.90
39957;DHT22;48483;44.640;7.494;2024-03-29T11:33:51;11.70;99.90
39957;DHT22;48483;44.640;7.494;2024-03-29T11:36:20;11.70;99.90
39957;DHT22;48483;44.640;7.494;2024-03-29T11:38:52;11.80;99.90
39957;DHT22;48483;44.640;7.494;2024-03-29T11:41:20;11.90;99.90
39957;DHT22;48483;44.640;7.494;2024-03-29T11:46:37;11.90;99.90
39957;DHT22;48483;44.640;7.494;2024-03-29T11:49:04;11.80;99.90
39957;DHT22;48483;44.640;7.494;2024-03-29T11:51:31;11.80;99.90
39957;DHT22;48483;44.640;7.494;2024-03-29T11:53:59;11.80;99.90
39957;DHT22;48483;44.640;7.494;2024-03-29T11:56:26;11.80;99.90
39957;DHT22;48483;44.640;7.494;2024-03-29T11:58:53;11.70;99.90
39957;DHT22;48483;44.640;7.494;2024-03-29T12:01:26;11.80;99.90
39957;DHT22;48483;44.640;7.494;2024-03-29T12:03:54;11.80;99.90
39957;DHT22;48483;44.640;7.494;2024-03-29T12:06:21;11.80;99.90
39957;DHT22;48483;44.640;7.494;2024-03-29T12:08:48;11.90;99.90
39957;DHT22;48483;44.640;7.494;2024-03-29T12:11:16;11.90;99.90
39957;DHT22;48483;44.640;7.494;2024-03-29T12:13:44;12.00;99.90
39957;DHT22;48483;44.640;7.494;2024-03-29T12:16:11;12.00;99.90
39957;DHT22;48483;44.640;7.494;2024-03-29T12:18:39;12.00;99.90
39957;DHT22;48483;44.640;7.494;2024-03-29T12:21:08;12.10;99.90
39957;DHT22;48483;44.640;7.494;2024-03-29T12:23:36;12.20;99.90
39957;DHT22;48483;44.640;7.494;2024-03-29T12:26:03;12.10;99.90
39957;DHT22;48483;44.640;7.494;2024-03-29T12:28:30;12.20;99.90
39957;DHT22;48483;44.640;7.494;2024-03-29T12:31:00;12.20;99.90
39957;DHT22;48483;44.640;7.494;2024-03-29T12:33:27;12.20;99.90
39957;DHT22;48483;44.640;7.494;2024-03-29T12:35:55;12.30;99.90
39957;DHT22;48483;44.640;7.494;2024-03-29T12:38:24;12.40;99.90
39957;DHT22;48483;44.640;7.494;2024-03-29T12:40:51;12.30;99.90
39957;DHT22;48483;44.640;7.494;2024-03-29T12:43:20;12.30;99.90
39957;DHT22;48483;44.640;7.494;2024-03-29T12:45:48;12.30;99.90
39957;DHT22;48483;44.640;7.494;2024-03-29T12:48:17;12.20;99.90
39957;DHT22;48483;44.640;7.494;2024-03-29T12:50:46;12.20;99.90
39957;DHT22;48483;44.640;7.494;2024-03-29T12:53:14;12.10;99.90
39957;DHT22;48483;44.640;7.494;2024-03-29T12:55:44;12.20;99.90
39957;DHT22;48483;44.640;7.494;2024-03-29T12:58:12;12.10;99.90
39957;DHT22;48483;44.640;7.494;2024-03-29T13:00:40;12.20;99.90
39957;DHT22;48483;44.640;7.494;2024-03-29T13:03:07;12.20;99.90
39957;DHT22;48483;44.640;7.494;2024-03-29T13:05:35;12.20;99.90
39957;DHT22;48483;44.640;7.494;2024-03-29T13:08:07;12.30;99.90
39957;DHT22;48483;44.640;7.494;2024-03-29T13:10:35;12.10;99.90
39957;DHT22;48483;44.640;7.494;2024-03-29T13:13:04;12.20;99.90
39957;DHT22;48483;44.640;7.494;2024-03-29T13:15:33;12.20;99.90
39957;DHT22;48483;44.640;7.494;2024-03-29T13:17:59;12.10;99.90
39957;DHT22;48483;44.640;7.494;2024-03-29T13:20:26;12.00;99.90
39957;DHT22;48483;44.640;7.494;2024-03-29T13:22:53;12.00;99.90
39957;DHT22;48483;44.640;7.494;2024-03-29T13:25:22;11.90;99.90
39957;DHT22;48483;44.640;7.494;2024-03-29T13:27:50;11.90;99.90
39957;DHT22;48483;44.640;7.494;2024-03-29T13:30:25;11.90;99.90
39957;DHT22;48483;44.640;7.494;2024-03-29T13:32:53;12.00;99.90
39957;DHT22;48483;44.640;7.494;2024-03-29T13:35:20;11.90;99.90
39957;DHT22;48483;44.640;7.494;2024-03-29T13:37:52;12.00;99.90
39957;DHT22;48483;44.640;7.494;2024-03-29T13:40:23;11.90;99.90
39957;DHT22;48483;44.640;7.494;2024-03-29T13:42:51;11.90;99.90
39957;DHT22;48483;44.640;7.494;2024-03-29T13:45:17;11.90;99.90
39957;DHT22;48483;44.640;7.494;2024-03-29T13:47:46;11.90;99.90
39957;DHT22;48483;44.640;7.494;2024-03-29T13:50:14;11.80;99.90
39957;DHT22;48483;44.640;7.494;2024-03-29T13:52:42;11.80;99.90
39957;DHT22;48483;44.640;7.494;2024-03-29T13:55:10;11.80;99.90
39957;DHT22;48483;44.640;7.494;2024-03-29T13:57:37;11.70;99.90
39957;DHT22;48483;44.640;7.494;2024-03-29T14:00:05;11.60;99.90
39957;DHT22;48483;44.640;7.494;2024-03-29T14:02:33;11.60;99.90
39957;DHT22;48483;44.640;7.494;2024-03-29T14:05:02;11.60;99.90
39957;DHT22;48483;44.640;7.494;2024-03-29T14:07:31;11.70;99.90
39957;DHT22;48483;44.640;7.494;2024-03-29T14:09:58;11.60;99.90
39957;DHT22;48483;44.640;7.494;2024-03-29T14:12:25;11.70;99.90
39957;DHT22;48483;44.640;7.494;2024-03-29T14:14:52;11.60;99.90
39957;DHT22;48483;44.640;7.494;2024-03-29T14:17:19;11.60;99.90
39957;DHT22;48483;44.640;7.494;2024-03-29T14:19:46;11.60;99.90
39957;DHT22;48483;44.640;7.494;2024-03-29T14:22:15;11.60;99.90
39957;DHT22;48483;44.640;7.494;2024-03-29T14:24:46;11.60;99.90
39957;DHT22;48483;44.640;7.494;2024-03-29T14:27:13;11.60;99.90
39957;DHT22;48483;44.640;7.494;2024-03-29T14:29:40;11.50;99.90
39957;DHT22;48483;44.640;7.494;2024-03-29T14:32:07;11.50;99.90
39957;DHT22;48483;44.640;7.494;2024-03-29T14:34:34;11.50;99.90
39957;DHT22;48483;44.640;7.494;2024-03-29T14:37:05;11.50;99.90
39957;DHT22;48483;44.640;7.494;2024-03-29T14:39:33;11.50;99.90
39957;DHT22;48483;44.640;7.494;2024-03-29T14:42:00;11.30;99.90
39957;DHT22;48483;44.640;7.494;2024-03-29T14:44:31;11.30;99.90
39957;DHT22;48483;44.640;7.494;2024-03-29T14:46:58;11.30;99.90
39957;DHT22;48483;44.640;7.494;2024-03-29T14:49:24;11.40;99.90
39957;DHT22;48483;44.640;7.494;2024-03-29T14:51:51;11.20;99.90
39957;DHT22;48483;44.640;7.494;2024-03-29T14:54:18;11.10;99.90
39957;DHT22;48483;44.640;7.494;2024-03-29T14:56:46;11.00;99.90
39957;DHT22;48483;44.640;7.494;2024-03-29T14:59:14;11.00;99.90
39957;DHT22;48483;44.640;7.494;2024-03-29T15:01:41;11.10;99.90
39957;DHT22;48483;44.640;7.494;2024-03-29T15:04:09;11.10;99.90
39957;DHT22;48483;44.640;7.494;2024-03-29T15:06:35;11.10;99.90
39957;DHT22;48483;44.640;7.494;2024-03-29T15:09:02;11.10;99.90
39957;DHT22;48483;44.640;7.494;2024-03-29T15:11:30;11.20;99.90
39957;DHT22;48483;44.640;7.494;2024-03-29T15:14:01;11.20;99.90
39957;DHT22;48483;44.640;7.494;2024-03-29T15:16:28;11.20;99.90
39957;DHT22;48483;44.640;7.494;2024-03-29T15:18:55;11.20;99.90
39957;DHT22;48483;44.640;7.494;2024-03-29T15:21:24;11.10;99.90
39957;DHT22;48483;44.640;7.494;2024-03-29T15:23:51;11.10;99.90
39957;DHT22;48483;44.640;7.494;2024-03-29T15:26:17;11.10;99.90
39957;DHT22;48483;44.640;7.494;2024-03-29T15:28:46;11.00;99.90
39957;DHT22;48483;44.640;7.494;2024-03-29T15:31:33;11.10;99.90
39957;DHT22;48483;44.640;7.494;2024-03-29T15:34:00;11.10;99.90
39957;DHT22;48483;44.640;7.494;2024-03-29T15:36:26;11.00;99.90
39957;DHT22;48483;44.640;7.494;2024-03-29T15:38:53;11.00;99.90
39957;DHT22;48483;44.640;7.494;2024-03-29T15:41:31;11.00;99.90
39957;DHT22;48483;44.640;7.494;2024-03-29T15:43:58;11.00;99.90
39957;DHT22;48483;44.640;7.494;2024-03-29T15:46:28;11.10;99.90
39957;DHT22;48483;44.640;7.494;2024-03-29T15:48:56;11.10;99.90
39957;DHT22;48483;44.640;7.494;2024-03-29T15:51:23;11.10;99.90